Time;durP1;ratioP1;P1;durP2;ratioP2;P2;SDS_P1;SDS_P2;PMS_P1;PMS_P2;Temp;Humidity;BMP_temperature;BMP_pressure;BME280_temperature;BME280_humidity;BME280_pressure;Samples;Min_cycle;Max_cycle;Signal;HPM_P1;HPM_P2
2023/09/21 00:00:49;;;;;;;3.85;1.10;;;20.00;77.20;;;;;;5013931;28;20026;-90
2023/09/21 00:03:15;;;;;;;3.47;0.93;;;19.90;77.20;;;;;;5013287;28;20132;-88
2023/09/21 00:05:46;;;;;;;2.05;0.80;;;20.00;77.20;;;;;;5014906;28;20037;-85
2023/09/21 00:08:12;;;;;;;6.03;1.00;;;20.00;77.20;;;;;;5012819;28;20057;-82
2023/09/21 00:10:41;;;;;;;2.95;0.93;;;20.00;77.10;;;;;;5012750;28;20022;-85
2023/09/21 00:13:06;;;;;;;4.00;1.00;;;20.00;77.00;;;;;;5012980;28;20030;-85
2023/09/21 00:15:34;;;;;;;4.60;0.90;;;20.00;77.00;;;;;;5014162;28;20018;-88
2023/09/21 00:18:00;;;;;;;3.13;1.05;;;20.00;77.00;;;;;;5015445;28;20033;-87
2023/09/21 00:20:36;;;;;;;3.10;1.10;;;20.00;77.00;;;;;;5014698;28;20412;-84
2023/09/21 00:23:06;;;;;;;3.25;1.05;;;20.00;77.10;;;;;;5015587;28;20033;-88
2023/09/21 00:25:32;;;;;;;3.25;0.88;;;19.90;77.10;;;;;;5015465;28;20373;-86
2023/09/21 00:27:58;;;;;;;2.72;1.00;;;19.90;77.20;;;;;;5014405;28;20112;-88
2023/09/21 00:30:23;;;;;;;3.55;1.15;;;19.90;77.50;;;;;;5014811;28;20033;-88
2023/09/21 00:32:49;;;;;;;2.95;1.13;;;19.80;77.60;;;;;;5015780;28;20042;-87
2023/09/21 00:35:16;;;;;;;3.63;1.00;;;19.60;77.50;;;;;;5014161;28;20030;-88
2023/09/21 00:37:42;;;;;;;2.58;0.90;;;19.80;77.80;;;;;;5017608;28;20026;-89
2023/09/21 00:40:17;;;;;;;2.67;0.82;;;19.70;77.90;;;;;;5017715;28;20029;-87
2023/09/21 00:42:45;;;;;;;2.17;0.82;;;19.60;77.90;;;;;;5015148;28;20029;-90
2023/09/21 00:45:12;;;;;;;4.60;1.10;;;19.60;78.10;;;;;;5013796;28;20026;-89
2023/09/21 00:47:43;;;;;;;5.70;0.90;;;19.60;78.20;;;;;;5015004;28;20049;-87
2023/09/21 00:50:12;;;;;;;3.70;0.90;;;19.50;78.20;;;;;;5016193;28;20109;-87
2023/09/21 00:52:43;;;;;;;3.45;0.85;;;19.50;78.20;;;;;;5018949;28;20022;-83
2023/09/21 00:55:16;;;;;;;3.17;1.10;;;19.50;78.30;;;;;;5018385;28;20472;-85
2023/09/21 00:57:43;;;;;;;2.15;0.75;;;19.50;78.30;;;;;;5018424;28;20393;-85
2023/09/21 01:00:12;;;;;;;2.13;0.90;;;19.30;78.10;;;;;;5006744;28;20222;-87
2023/09/21 01:02:42;;;;;;;3.85;1.00;;;19.40;78.10;;;;;;5010624;28;20022;-85
2023/09/21 01:05:08;;;;;;;3.65;1.00;;;19.40;78.10;;;;;;5017676;28;20025;-87
2023/09/21 01:07:36;;;;;;;2.80;0.90;;;19.40;78.00;;;;;;5016363;28;20022;-84
2023/09/21 01:10:07;;;;;;;3.45;1.08;;;19.40;78.00;;;;;;5015944;28;20518;-86
2023/09/21 01:12:35;;;;;;;2.13;0.88;;;19.40;77.70;;;;;;5018009;28;20022;-88
2023/09/21 01:15:11;;;;;;;5.47;1.30;;;19.40;77.70;;;;;;5015761;28;20130;-85
2023/09/21 01:17:45;;;;;;;5.32;1.13;;;19.40;77.40;;;;;;5016132;28;20022;-85
2023/09/21 01:20:22;;;;;;;4.18;1.10;;;19.50;77.50;;;;;;5016515;28;20018;-87
2023/09/21 01:23:17;;;;;;;4.78;1.10;;;19.50;77.30;;;;;;5017219;28;20023;-84
2023/09/21 01:25:44;;;;;;;5.53;1.05;;;19.50;77.30;;;;;;5015050;28;20064;-87
2023/09/21 01:28:13;;;;;;;3.55;1.30;;;19.40;77.10;;;;;;5015038;28;20305;-88
2023/09/21 01:30:38;;;;;;;3.17;1.00;;;19.50;77.20;;;;;;5016635;28;20026;-85
2023/09/21 01:33:15;;;;;;;7.22;1.10;;;19.50;77.10;;;;;;5014631;28;20040;-88
2023/09/21 01:35:45;;;;;;;3.17;1.08;;;19.50;77.10;;;;;;5015330;28;20026;-86
2023/09/21 01:38:12;;;;;;;3.83;1.08;;;19.50;77.10;;;;;;5016516;28;20550;-83
2023/09/21 01:40:39;;;;;;;3.63;0.90;;;19.50;77.10;;;;;;5016987;28;20026;-81
2023/09/21 01:43:10;;;;;;;2.95;0.80;;;19.40;77.00;;;;;;5015733;28;20030;-90
2023/09/21 01:45:40;;;;;;;2.95;0.88;;;19.50;77.10;;;;;;5014961;28;20395;-91
2023/09/21 01:48:15;;;;;;;5.05;1.30;;;19.40;77.00;;;;;;5016657;28;20026;-85
2023/09/21 01:50:51;;;;;;;3.10;0.82;;;19.50;77.00;;;;;;5017216;28;20030;-86
2023/09/21 01:53:20;;;;;;;3.60;1.00;;;19.50;77.00;;;;;;5014625;28;20117;-86
2023/09/21 01:55:47;;;;;;;2.10;0.88;;;19.50;77.00;;;;;;5015512;28;20029;-83
2023/09/21 01:58:14;;;;;;;3.45;1.15;;;19.50;76.90;;;;;;5016014;28;20029;-85
2023/09/21 02:00:46;;;;;;;2.17;0.90;;;19.50;77.00;;;;;;5014265;28;20029;-88
2023/09/21 02:03:14;;;;;;;4.97;1.08;;;19.40;76.90;;;;;;5015171;28;20056;-88
2023/09/21 02:05:41;;;;;;;2.10;0.80;;;19.50;76.90;;;;;;5015960;28;20079;-83
2023/09/21 02:08:08;;;;;;;3.45;0.90;;;19.60;76.90;;;;;;5015895;28;20033;-86
2023/09/21 02:10:38;;;;;;;2.53;0.95;;;19.50;76.80;;;;;;5015551;28;20025;-85
2023/09/21 02:13:05;;;;;;;4.43;0.90;;;19.50;76.60;;;;;;5014791;28;20030;-85
2023/09/21 02:15:34;;;;;;;2.65;0.93;;;19.40;76.50;;;;;;5016181;28;20044;-83
2023/09/21 02:18:02;;;;;;;2.95;0.90;;;19.50;76.50;;;;;;5014410;28;20576;-87
2023/09/21 02:20:29;;;;;;;2.80;0.75;;;19.50;76.50;;;;;;5014452;28;20072;-90
2023/09/21 02:23:00;;;;;;;3.83;0.77;;;19.60;76.50;;;;;;5015980;28;20057;-85
2023/09/21 02:25:30;;;;;;;3.83;0.80;;;19.70;76.60;;;;;;5015973;28;20022;-85
2023/09/21 02:27:56;;;;;;;4.53;0.93;;;19.60;76.60;;;;;;5016046;28;20053;-84
2023/09/21 02:30:22;;;;;;;3.40;0.93;;;19.60;76.60;;;;;;5014392;28;20028;-88
2023/09/21 02:32:48;;;;;;;4.68;1.10;;;19.50;76.50;;;;;;5014372;28;20022;-86
2023/09/21 02:35:16;;;;;;;4.32;0.90;;;19.50;76.50;;;;;;5015375;28;20484;-83
2023/09/21 02:37:45;;;;;;;2.72;1.00;;;19.50;76.40;;;;;;5013742;28;20117;-85
2023/09/21 02:40:15;;;;;;;3.00;1.00;;;19.60;76.50;;;;;;5014779;28;20044;-87
2023/09/21 02:42:42;;;;;;;3.85;1.00;;;19.60;76.50;;;;;;5013460;28;20399;-87
2023/09/21 02:45:10;;;;;;;2.33;0.68;;;19.50;76.50;;;;;;5014424;28;20058;-86
2023/09/21 02:47:37;;;;;;;3.65;0.73;;;19.60;76.50;;;;;;5014514;28;20021;-86
2023/09/21 02:50:09;;;;;;;3.70;0.80;;;19.60;76.50;;;;;;5013963;28;20025;-90
2023/09/21 02:52:36;;;;;;;2.53;0.77;;;19.60;76.60;;;;;;5014936;28;20076;-87
2023/09/21 02:55:01;;;;;;;3.42;1.00;;;19.60;76.50;;;;;;5014348;28;20171;-86
2023/09/21 02:57:29;;;;;;;3.00;1.00;;;19.70;76.50;;;;;;5014225;28;20463;-87
2023/09/21 02:59:55;;;;;;;2.88;0.88;;;19.60;76.40;;;;;;5014050;28;20033;-85
2023/09/21 03:02:20;;;;;;;3.15;1.00;;;19.60;76.20;;;;;;5013959;28;20034;-85
2023/09/21 03:04:48;;;;;;;2.45;1.13;;;19.70;76.30;;;;;;5015495;28;20029;-86
2023/09/21 03:07:16;;;;;;;2.25;0.93;;;19.70;76.10;;;;;;5016281;28;20026;-86
2023/09/21 03:09:42;;;;;;;3.53;1.00;;;19.70;76.10;;;;;;5015514;28;20500;-85
2023/09/21 03:12:08;;;;;;;2.72;0.80;;;19.70;76.10;;;;;;5013529;28;20057;-85
2023/09/21 03:14:33;;;;;;;2.22;0.75;;;19.60;76.00;;;;;;5013386;28;20046;-88
2023/09/21 03:16:59;;;;;;;2.70;0.70;;;19.70;76.10;;;;;;5014355;28;20101;-84
2023/09/21 03:19:25;;;;;;;2.42;0.77;;;19.70;76.00;;;;;;5015551;28;20488;-85
2023/09/21 03:21:50;;;;;;;5.85;0.98;;;19.70;76.00;;;;;;5014211;28;20026;-86
2023/09/21 03:24:17;;;;;;;3.50;1.00;;;19.70;76.40;;;;;;5015779;28;20506;-87
2023/09/21 03:26:44;;;;;;;2.58;0.93;;;19.70;75.90;;;;;;5014820;28;20026;-83
2023/09/21 03:29:12;;;;;;;3.65;0.98;;;19.80;75.90;;;;;;5014342;28;20092;-88
2023/09/21 03:31:38;;;;;;;3.03;1.00;;;19.80;75.60;;;;;;5013264;28;20032;-85
2023/09/21 03:34:05;;;;;;;2.83;0.90;;;19.80;75.70;;;;;;5014890;28;20030;-87
2023/09/21 03:36:35;;;;;;;3.55;1.20;;;19.80;75.70;;;;;;5015065;28;20025;-86
2023/09/21 03:39:08;;;;;;;5.05;1.00;;;19.80;75.70;;;;;;5012766;28;20030;-88
2023/09/21 03:41:34;;;;;;;2.40;0.80;;;19.80;75.50;;;;;;5014616;28;20061;-85
2023/09/21 03:43:59;;;;;;;2.97;0.88;;;19.80;75.50;;;;;;5014353;28;20029;-86
2023/09/21 03:46:25;;;;;;;3.05;0.90;;;19.80;75.60;;;;;;5014356;28;20403;-85
2023/09/21 03:48:50;;;;;;;4.13;1.13;;;19.80;75.40;;;;;;5012363;28;20084;-83
2023/09/21 03:51:17;;;;;;;3.35;1.05;;;19.80;75.50;;;;;;5013738;28;20029;-88
2023/09/21 03:53:42;;;;;;;3.50;1.08;;;19.70;75.40;;;;;;5013497;28;20038;-85
2023/09/21 03:56:08;;;;;;;4.32;0.88;;;19.80;75.40;;;;;;5014082;28;20033;-87
2023/09/21 03:58:34;;;;;;;3.70;0.82;;;19.80;75.40;;;;;;5012820;28;20030;-86
2023/09/21 04:01:04;;;;;;;3.20;0.95;;;19.80;75.50;;;;;;5014964;28;20072;-88
2023/09/21 04:03:30;;;;;;;2.10;0.80;;;19.80;75.50;;;;;;5014341;28;20037;-88
2023/09/21 04:06:03;;;;;;;2.78;1.10;;;19.70;75.50;;;;;;5015169;28;20030;-86
2023/09/21 04:08:28;;;;;;;2.08;0.70;;;19.90;75.60;;;;;;5014879;28;20045;-88
2023/09/21 04:10:59;;;;;;;3.10;0.80;;;19.90;75.60;;;;;;5012666;28;20025;-86
2023/09/21 04:13:25;;;;;;;3.35;1.13;;;19.90;75.70;;;;;;5013140;28;20048;-84
2023/09/21 04:15:50;;;;;;;3.35;0.77;;;19.90;75.60;;;;;;5013721;28;20022;-89
2023/09/21 04:18:16;;;;;;;2.22;0.70;;;19.90;75.60;;;;;;5014928;28;20022;-85
2023/09/21 04:20:44;;;;;;;4.22;0.80;;;20.00;75.80;;;;;;5015485;28;20021;-88
2023/09/21 04:23:10;;;;;;;3.38;1.10;;;19.90;75.70;;;;;;5013588;28;20034;-85
2023/09/21 04:25:38;;;;;;;2.55;1.20;;;20.00;75.80;;;;;;5012128;28;20053;-88
2023/09/21 04:28:05;;;;;;;3.50;0.85;;;19.90;75.70;;;;;;5013201;28;20042;-86
2023/09/21 04:30:34;;;;;;;2.90;0.75;;;19.90;75.80;;;;;;5012157;28;20042;-84
2023/09/21 04:33:00;;;;;;;4.28;0.90;;;20.00;75.80;;;;;;5013812;28;20073;-85
2023/09/21 04:35:27;;;;;;;4.43;1.13;;;20.00;75.90;;;;;;5013035;28;20073;-83
2023/09/21 04:37:54;;;;;;;2.40;0.80;;;20.00;75.90;;;;;;5012976;28;20416;-86
2023/09/21 04:40:20;;;;;;;2.78;0.88;;;20.00;75.70;;;;;;5014493;28;20057;-84
2023/09/21 04:42:47;;;;;;;2.60;0.90;;;20.00;75.80;;;;;;5012810;28;20033;-86
2023/09/21 04:45:15;;;;;;;5.18;1.00;;;20.10;75.80;;;;;;5013238;28;20030;-87
2023/09/21 04:47:45;;;;;;;2.85;1.00;;;20.10;75.80;;;;;;5010348;28;20389;-90
2023/09/21 04:50:16;;;;;;;1.77;0.73;;;20.10;75.80;;;;;;5013403;28;20087;-86
2023/09/21 04:52:43;;;;;;;3.03;1.10;;;20.00;75.80;;;;;;5014143;28;20756;-87
2023/09/21 04:55:10;;;;;;;2.40;0.90;;;20.10;75.80;;;;;;5009737;28;20096;-90
2023/09/21 04:57:36;;;;;;;3.60;0.80;;;20.00;75.70;;;;;;4993022;28;20484;-86
2023/09/21 05:00:06;;;;;;;5.75;1.40;;;20.00;75.90;;;;;;5004037;28;20036;-88
2023/09/21 05:02:32;;;;;;;2.20;0.88;;;20.00;75.70;;;;;;5011770;28;20041;-89
2023/09/21 05:04:59;;;;;;;2.83;0.90;;;20.00;75.80;;;;;;5012644;28;20022;-86
2023/09/21 05:07:25;;;;;;;2.42;0.80;;;20.00;76.50;;;;;;5013744;28;20045;-87
2023/09/21 05:09:50;;;;;;;4.63;0.90;;;20.00;75.90;;;;;;5013796;28;20428;-86
2023/09/21 05:12:18;;;;;;;3.38;1.00;;;20.00;75.90;;;;;;5011384;28;20121;-86
2023/09/21 05:14:48;;;;;;;6.80;1.30;;;20.00;76.00;;;;;;5012344;28;20038;-86
2023/09/21 05:17:14;;;;;;;3.50;0.90;;;20.00;76.10;;;;;;5011586;28;20053;-86
2023/09/21 05:19:41;;;;;;;4.03;1.00;;;20.00;76.40;;;;;;5012624;28;20026;-86
2023/09/21 05:22:09;;;;;;;2.95;0.80;;;20.00;76.60;;;;;;5004159;28;20030;-86
2023/09/21 05:24:36;;;;;;;2.85;0.90;;;20.00;76.70;;;;;;5002141;28;20032;-89
2023/09/21 05:27:02;;;;;;;2.65;1.02;;;20.00;76.80;;;;;;4994181;28;20061;-86
2023/09/21 05:29:29;;;;;;;3.40;0.85;;;19.90;76.80;;;;;;5006810;28;20053;-89
2023/09/21 05:31:54;;;;;;;4.00;1.13;;;19.90;77.00;;;;;;5012334;28;20133;-86
2023/09/21 05:34:20;;;;;;;3.65;1.20;;;19.90;77.00;;;;;;5011551;28;20125;-83
2023/09/21 05:36:49;;;;;;;3.08;1.08;;;19.90;77.10;;;;;;5014333;28;20037;-86
2023/09/21 05:39:17;;;;;;;5.45;1.25;;;19.90;77.20;;;;;;5012881;28;20061;-86
2023/09/21 05:41:46;;;;;;;2.65;0.90;;;19.90;77.20;;;;;;4998798;28;20185;-92
2023/09/21 05:44:12;;;;;;;2.65;1.10;;;20.00;77.40;;;;;;5008047;28;20048;-86
2023/09/21 05:46:39;;;;;;;3.10;1.05;;;19.90;77.50;;;;;;5014326;28;20090;-88
2023/09/21 05:49:07;;;;;;;3.72;1.23;;;19.90;77.60;;;;;;5015140;28;20095;-84
2023/09/21 05:51:36;;;;;;;4.38;1.10;;;19.90;77.60;;;;;;5015719;28;20141;-85
2023/09/21 05:54:03;;;;;;;2.15;0.88;;;19.90;77.70;;;;;;5014788;28;20037;-85
2023/09/21 05:56:30;;;;;;;3.15;1.15;;;19.90;77.80;;;;;;5001586;28;20033;-87
2023/09/21 05:58:56;;;;;;;4.07;1.00;;;19.80;78.10;;;;;;5015073;28;20022;-86
2023/09/21 06:01:22;;;;;;;3.10;1.10;;;19.80;78.30;;;;;;5014856;28;20033;-84
2023/09/21 06:03:48;;;;;;;3.58;1.35;;;19.90;78.40;;;;;;5015532;28;20499;-83
2023/09/21 06:09:35;;;;;;;2.30;0.90;;;19.80;78.40;;;;;;4997191;28;20093;-85
2023/09/21 06:12:01;;;;;;;4.15;1.33;;;19.80;78.60;;;;;;4995363;28;20026;-85
2023/09/21 06:14:26;;;;;;;2.92;1.00;;;19.70;78.50;;;;;;4995375;28;20493;-85
2023/09/21 06:16:52;;;;;;;4.63;1.00;;;19.80;78.70;;;;;;5003912;28;20029;-88
2023/09/21 06:19:18;;;;;;;6.35;1.17;;;19.80;78.70;;;;;;5015232;28;20036;-87
2023/09/21 06:21:50;;;;;;;4.63;1.10;;;19.80;78.90;;;;;;5014633;28;20502;-84
2023/09/21 06:24:18;;;;;;;5.32;1.48;;;19.80;78.80;;;;;;5015763;28;20061;-89
2023/09/21 06:26:44;;;;;;;3.53;0.90;;;19.70;79.00;;;;;;5014859;28;20107;-88
2023/09/21 06:29:10;;;;;;;3.95;1.00;;;19.70;79.40;;;;;;5014308;28;20298;-86
2023/09/21 06:31:36;;;;;;;5.78;1.75;;;19.70;79.50;;;;;;5015123;28;20029;-84
2023/09/21 06:34:01;;;;;;;3.42;1.20;;;19.70;80.20;;;;;;5015827;28;20040;-88
2023/09/21 06:36:28;;;;;;;3.58;0.80;;;19.70;80.00;;;;;;5014936;28;20095;-89
2023/09/21 06:38:57;;;;;;;2.00;0.90;;;19.70;80.20;;;;;;5006818;28;20026;-86
2023/09/21 06:41:23;;;;;;;2.33;0.90;;;19.70;80.40;;;;;;5006843;28;20113;-86
2023/09/21 06:43:50;;;;;;;4.25;0.90;;;19.70;80.50;;;;;;5014826;28;20072;-90
2023/09/21 06:46:16;;;;;;;2.30;1.10;;;19.70;81.00;;;;;;5013920;28;20022;-88
2023/09/21 06:48:42;;;;;;;4.50;1.25;;;19.60;81.10;;;;;;5015492;28;20428;-85
2023/09/21 06:51:08;;;;;;;3.83;1.20;;;19.50;81.40;;;;;;5013954;28;20344;-85
2023/09/21 06:53:36;;;;;;;5.60;1.50;;;19.50;81.80;;;;;;5016477;28;20113;-84
2023/09/21 06:56:02;;;;;;;4.65;1.13;;;19.50;81.70;;;;;;5014999;28;20030;-82
2023/09/21 06:58:30;;;;;;;5.75;1.38;;;19.50;82.40;;;;;;5014610;28;20022;-87
2023/09/21 07:00:56;;;;;;;4.50;1.23;;;19.40;82.50;;;;;;5014825;28;20025;-89
2023/09/21 07:03:23;;;;;;;6.75;1.17;;;19.40;82.50;;;;;;5016370;28;20029;-86
2023/09/21 07:05:49;;;;;;;3.05;1.17;;;19.30;83.00;;;;;;5015221;28;20033;-87
2023/09/21 07:08:15;;;;;;;5.80;1.35;;;19.30;83.70;;;;;;5015752;28;20072;-86
2023/09/21 07:10:43;;;;;;;4.50;1.13;;;19.10;84.10;;;;;;5017568;28;20113;-87
2023/09/21 07:13:09;;;;;;;3.88;1.38;;;19.10;84.70;;;;;;5017156;28;20105;-85
2023/09/21 07:15:37;;;;;;;3.67;1.20;;;19.00;85.00;;;;;;5018158;28;20476;-86
2023/09/21 07:18:05;;;;;;;3.53;1.30;;;19.00;85.00;;;;;;5018937;28;20030;-85
2023/09/21 07:20:31;;;;;;;4.35;1.33;;;19.00;85.50;;;;;;5018890;28;20029;-86
2023/09/21 07:22:57;;;;;;;4.40;1.77;;;19.00;86.00;;;;;;5017372;28;20022;-88
2023/09/21 07:25:23;;;;;;;3.92;1.25;;;19.00;85.80;;;;;;5017909;28;20037;-79
2023/09/21 07:27:51;;;;;;;4.93;1.58;;;18.90;86.00;;;;;;5017013;28;20049;-89
2023/09/21 07:30:17;;;;;;;4.75;1.23;;;19.00;86.60;;;;;;5019607;28;20017;-85
2023/09/21 07:32:43;;;;;;;4.38;1.20;;;18.90;86.50;;;;;;5016892;28;20465;-84
2023/09/21 07:35:09;;;;;;;3.20;1.10;;;19.00;86.70;;;;;;5016070;28;20080;-86
2023/09/21 07:37:35;;;;;;;4.32;1.52;;;18.90;87.10;;;;;;5018015;28;20091;-81
2023/09/21 07:40:06;;;;;;;4.20;1.10;;;18.90;87.20;;;;;;5017126;28;20459;-85
2023/09/21 07:42:33;;;;;;;2.72;0.90;;;19.00;87.40;;;;;;5014897;28;20022;-86
2023/09/21 07:44:59;;;;;;;5.78;1.38;;;18.80;87.30;;;;;;5018695;28;20443;-88
2023/09/21 07:47:26;;;;;;;4.57;1.67;;;18.80;87.80;;;;;;5018365;28;20109;-83
2023/09/21 07:49:55;;;;;;;2.97;1.50;;;18.80;88.30;;;;;;5019079;28;20026;-84
2023/09/21 07:52:23;;;;;;;4.75;1.20;;;18.80;88.50;;;;;;5019102;28;20328;-87
2023/09/21 07:54:49;;;;;;;3.90;1.35;;;18.80;88.60;;;;;;5017961;28;20042;-83
2023/09/21 07:57:16;;;;;;;3.60;1.42;;;18.80;88.60;;;;;;5017295;28;20089;-82
2023/09/21 07:59:42;;;;;;;3.55;1.48;;;18.80;88.90;;;;;;5015813;28;20014;-85
2023/09/21 08:02:09;;;;;;;4.32;1.27;;;18.70;89.30;;;;;;5018309;28;20021;-84
2023/09/21 08:04:34;;;;;;;4.30;1.40;;;18.70;89.20;;;;;;5015413;28;20117;-85
2023/09/21 08:07:00;;;;;;;4.50;1.67;;;18.70;89.80;;;;;;5016095;28;20076;-82
2023/09/21 08:09:26;;;;;;;4.07;1.55;;;18.70;89.90;;;;;;5016433;28;20503;-82
2023/09/21 08:11:52;;;;;;;3.78;1.52;;;18.70;89.90;;;;;;5015476;28;20026;-81
2023/09/21 08:14:18;;;;;;;3.83;1.50;;;18.60;89.90;;;;;;5015484;28;20076;-88
2023/09/21 08:16:44;;;;;;;4.28;1.42;;;18.60;90.00;;;;;;5013952;28;20499;-83
2023/09/21 08:19:09;;;;;;;3.60;1.40;;;18.60;90.10;;;;;;5015770;28;20030;-83
2023/09/21 08:21:36;;;;;;;4.20;1.42;;;18.60;90.20;;;;;;5015021;28;20467;-85
2023/09/21 08:24:01;;;;;;;3.85;1.42;;;18.70;90.20;;;;;;5014416;28;20025;-82
2023/09/21 08:26:27;;;;;;;3.63;1.10;;;18.60;90.30;;;;;;5013722;28;20022;-87
2023/09/21 08:28:53;;;;;;;4.13;1.40;;;18.70;90.40;;;;;;5013647;28;20165;-86
2023/09/21 08:31:19;;;;;;;3.60;1.70;;;18.60;90.40;;;;;;5012534;28;20468;-85
2023/09/21 08:33:46;;;;;;;3.67;1.50;;;18.70;90.60;;;;;;5014755;28;20088;-86
2023/09/21 08:36:15;;;;;;;2.83;1.33;;;18.70;90.70;;;;;;5013889;28;20076;-86
2023/09/21 08:38:41;;;;;;;4.00;1.58;;;18.70;91.00;;;;;;5016824;28;20022;-86
2023/09/21 08:41:08;;;;;;;3.90;1.52;;;18.80;90.90;;;;;;5014425;28;20053;-86
2023/09/21 08:43:34;;;;;;;4.60;1.55;;;18.70;90.90;;;;;;5013679;28;20072;-88
2023/09/21 08:46:00;;;;;;;4.70;1.30;;;18.70;90.90;;;;;;5014542;28;20030;-87
2023/09/21 08:48:27;;;;;;;4.35;1.48;;;18.70;91.00;;;;;;5013248;28;20026;-88
2023/09/21 08:50:55;;;;;;;5.95;1.73;;;18.70;91.10;;;;;;5013308;28;20030;-88
2023/09/21 08:53:22;;;;;;;4.05;1.52;;;18.70;91.10;;;;;;5013668;28;20036;-89
2023/09/21 08:55:55;;;;;;;4.07;1.83;;;18.70;91.10;;;;;;5013677;28;20064;-89
2023/09/21 08:58:23;;;;;;;4.10;1.55;;;18.60;91.20;;;;;;5013051;28;20494;-87
2023/09/21 09:00:52;;;;;;;3.63;1.63;;;18.60;91.50;;;;;;5013381;28;20061;-90
2023/09/21 09:03:25;;;;;;;6.10;1.98;;;18.70;91.50;;;;;;5012914;28;20064;-86
2023/09/21 09:05:51;;;;;;;4.28;2.25;;;18.60;91.80;;;;;;5012532;28;20065;-88
2023/09/21 09:08:16;;;;;;;5.70;2.30;;;18.50;91.60;;;;;;5011887;28;20072;-86
2023/09/21 09:10:43;;;;;;;6.32;1.98;;;18.60;91.70;;;;;;5014701;28;20022;-86
2023/09/21 09:13:09;;;;;;;5.38;2.03;;;18.50;91.80;;;;;;5016902;28;20022;-87
2023/09/21 09:15:37;;;;;;;7.10;2.63;;;18.60;92.00;;;;;;5016771;28;20109;-89
2023/09/21 09:18:03;;;;;;;4.63;2.05;;;18.50;92.00;;;;;;5017500;28;20053;-89
2023/09/21 09:20:30;;;;;;;4.30;2.35;;;18.50;92.10;;;;;;5016318;28;20026;-88
2023/09/21 09:22:56;;;;;;;4.97;2.30;;;18.60;92.20;;;;;;5016885;28;20018;-89
2023/09/21 09:25:22;;;;;;;5.40;2.40;;;18.40;92.30;;;;;;5017841;28;20060;-89
2023/09/21 09:27:47;;;;;;;3.65;1.52;;;18.40;92.40;;;;;;5018169;28;20025;-89
2023/09/21 09:30:13;;;;;;;4.28;1.10;;;18.40;92.40;;;;;;5018490;28;20106;-88
2023/09/21 09:32:42;;;;;;;3.45;1.15;;;18.30;92.30;;;;;;5017482;28;20017;-89
2023/09/21 09:35:12;;;;;;;2.05;0.90;;;18.30;92.40;;;;;;5018413;28;20112;-89
2023/09/21 09:37:39;;;;;;;2.67;0.80;;;18.20;92.40;;;;;;5016418;28;20030;-89
2023/09/21 09:40:18;;;;;;;1.65;0.65;;;18.10;92.40;;;;;;5017710;28;20021;-88
2023/09/21 09:42:45;;;;;;;4.25;1.25;;;18.10;92.40;;;;;;5016826;28;20108;-88
2023/09/21 09:45:20;;;;;;;2.30;0.75;;;18.10;92.50;;;;;;5015461;28;20053;-90
2023/09/21 09:47:51;;;;;;;1.77;0.80;;;18.20;92.60;;;;;;5015240;28;20111;-89
2023/09/21 09:50:21;;;;;;;1.95;0.80;;;18.10;92.60;;;;;;5016801;28;20034;-89
2023/09/21 09:52:51;;;;;;;2.55;0.70;;;18.10;92.60;;;;;;5015195;28;20022;-88
2023/09/21 09:55:22;;;;;;;2.97;0.63;;;18.00;92.60;;;;;;5015389;28;20160;-88
2023/09/21 09:57:52;;;;;;;1.50;0.70;;;18.10;92.70;;;;;;5016767;28;20022;-89
2023/09/21 10:00:21;;;;;;;2.20;0.70;;;18.30;92.80;;;;;;5015800;28;20030;-89
2023/09/21 10:02:48;;;;;;;1.80;0.50;;;18.10;92.70;;;;;;5016379;28;20064;-90
2023/09/21 10:05:14;;;;;;;1.95;0.65;;;18.20;92.70;;;;;;5014968;28;20069;-88
2023/09/21 10:07:40;;;;;;;2.03;0.57;;;18.10;92.60;;;;;;5015695;28;20482;-89
2023/09/21 10:10:08;;;;;;;1.92;0.50;;;18.30;92.60;;;;;;5014889;28;20113;-88
2023/09/21 10:12:34;;;;;;;1.60;0.50;;;18.20;92.50;;;;;;5015873;28;20030;-89
2023/09/21 10:15:03;;;;;;;2.30;0.68;;;18.20;92.40;;;;;;5014486;28;20038;-88
2023/09/21 10:17:28;;;;;;;2.08;0.60;;;18.20;92.30;;;;;;5014553;28;20028;-88
2023/09/21 10:20:16;;;;;;;1.42;0.50;;;18.20;92.30;;;;;;5015451;28;20104;-87
2023/09/21 10:22:43;;;;;;;1.85;0.52;;;18.20;92.40;;;;;;5015136;28;20468;-89
2023/09/21 10:25:10;;;;;;;1.65;0.40;;;18.20;92.40;;;;;;5015803;28;20026;-88
2023/09/21 10:27:38;;;;;;;2.63;0.60;;;18.20;92.40;;;;;;5015639;28;20022;-89
2023/09/21 10:30:09;;;;;;;1.10;0.45;;;18.30;92.50;;;;;;5015874;28;20075;-88
2023/09/21 10:32:47;;;;;;;1.13;0.40;;;18.20;92.40;;;;;;5016506;28;20033;-89
2023/09/21 10:35:18;;;;;;;2.22;0.50;;;18.20;92.40;;;;;;5016137;28;20168;-87
2023/09/21 10:37:49;;;;;;;1.73;0.40;;;18.20;92.40;;;;;;5015393;28;20026;-89
2023/09/21 10:40:22;;;;;;;2.95;0.50;;;18.20;92.40;;;;;;5015615;28;20404;-89
2023/09/21 10:42:47;;;;;;;1.40;0.40;;;18.20;92.50;;;;;;5015650;28;20109;-88
2023/09/21 10:45:13;;;;;;;1.73;0.45;;;18.20;92.50;;;;;;5015860;28;20112;-89
2023/09/21 10:47:49;;;;;;;1.25;0.40;;;18.30;92.60;;;;;;5015260;28;20041;-88
2023/09/21 10:50:18;;;;;;;1.27;0.40;;;18.40;92.60;;;;;;5014254;28;20026;-88
2023/09/21 10:52:46;;;;;;;1.48;0.50;;;18.50;92.70;;;;;;5015032;28;20018;-87
2023/09/21 10:55:16;;;;;;;1.30;0.40;;;18.50;92.70;;;;;;5015524;28;20042;-89
2023/09/21 10:57:42;;;;;;;1.67;0.40;;;18.60;92.80;;;;;;5014568;28;20026;-88
2023/09/21 11:00:20;;;;;;;1.85;0.40;;;18.60;92.70;;;;;;5015494;28;20310;-89
2023/09/21 11:02:47;;;;;;;0.85;0.30;;;18.70;92.80;;;;;;5015133;28;20502;-88
2023/09/21 11:05:17;;;;;;;1.48;0.52;;;18.60;92.70;;;;;;5013865;28;20036;-88
2023/09/21 11:07:44;;;;;;;2.00;0.50;;;18.80;92.80;;;;;;5014770;28;20022;-88
2023/09/21 11:10:11;;;;;;;0.98;0.40;;;18.80;92.70;;;;;;5014624;28;20034;-87
2023/09/21 11:12:40;;;;;;;1.95;0.50;;;18.90;92.70;;;;;;5014855;28;20018;-86
2023/09/21 11:15:14;;;;;;;2.92;0.70;;;18.90;92.70;;;;;;5014729;28;20050;-87
2023/09/21 11:17:41;;;;;;;;;;;19.00;92.80;;;;;;5015240;28;20480;-88
2023/09/21 11:20:08;;;;;;;1.67;0.43;;;19.00;92.80;;;;;;5013186;28;19932;-88
2023/09/21 11:22:34;;;;;;;1.23;0.40;;;19.00;92.80;;;;;;5014711;28;20022;-88
2023/09/21 11:25:00;;;;;;;1.17;0.57;;;19.20;92.80;;;;;;5015015;28;20037;-88
2023/09/21 11:27:26;;;;;;;3.35;0.68;;;19.20;92.80;;;;;;5014410;28;20545;-88
2023/09/21 11:29:53;;;;;;;1.90;0.60;;;19.20;92.70;;;;;;5014196;28;20133;-87
2023/09/21 11:32:19;;;;;;;2.05;0.70;;;19.20;92.60;;;;;;5013888;28;20080;-89
2023/09/21 11:34:45;;;;;;;2.58;0.80;;;19.20;92.50;;;;;;5014917;28;20092;-87
2023/09/21 11:37:12;;;;;;;1.30;0.60;;;19.20;92.50;;;;;;5013242;28;20022;-80
2023/09/21 11:39:39;;;;;;;1.65;0.50;;;18.90;92.10;;;;;;5016223;28;20022;-89
2023/09/21 11:42:11;;;;;;;2.08;0.57;;;18.70;92.10;;;;;;5013822;28;20623;-86
2023/09/21 11:44:42;;;;;;;1.75;0.40;;;18.60;92.20;;;;;;5013829;28;20514;-87
2023/09/21 11:47:11;;;;;;;1.10;0.50;;;18.50;92.30;;;;;;5013808;28;20076;-88
2023/09/21 11:49:39;;;;;;;1.55;0.43;;;18.50;92.30;;;;;;5014528;28;20037;-89
2023/09/21 11:52:05;;;;;;;2.15;0.55;;;18.50;92.30;;;;;;5015815;28;20026;-86
2023/09/21 11:54:34;;;;;;;2.25;0.60;;;18.40;92.30;;;;;;5015783;28;20038;-85
2023/09/21 11:57:03;;;;;;;1.58;0.50;;;18.40;92.40;;;;;;5012417;28;20026;-84
2023/09/21 11:59:32;;;;;;;0.75;0.40;;;18.30;92.50;;;;;;5014413;28;20432;-86
2023/09/21 12:01:59;;;;;;;1.08;0.50;;;18.20;92.40;;;;;;5013914;28;20117;-86
2023/09/21 12:04:28;;;;;;;1.30;0.50;;;18.30;92.60;;;;;;5013473;28;20022;-88
2023/09/21 12:06:56;;;;;;;1.83;0.47;;;18.00;92.50;;;;;;5015255;28;20030;-89
2023/09/21 12:09:22;;;;;;;0.77;0.38;;;18.10;92.60;;;;;;5014357;28;20118;-86
2023/09/21 12:11:50;;;;;;;1.27;0.50;;;18.00;92.70;;;;;;5015435;28;20072;-89
2023/09/21 12:14:16;;;;;;;2.53;0.52;;;17.90;92.60;;;;;;5015767;28;20038;-88
2023/09/21 12:16:41;;;;;;;1.00;0.40;;;18.00;92.80;;;;;;5013619;28;20022;-85
2023/09/21 12:19:08;;;;;;;2.50;0.60;;;17.80;92.90;;;;;;5014798;28;20038;-88
2023/09/21 12:21:34;;;;;;;1.52;0.50;;;17.80;92.90;;;;;;5014570;28;20049;-87
2023/09/21 12:24:02;;;;;;;2.65;0.60;;;17.70;93.00;;;;;;5012793;28;20069;-83
2023/09/21 12:26:28;;;;;;;4.20;0.90;;;17.60;93.30;;;;;;5014814;28;20033;-82
2023/09/21 12:28:54;;;;;;;2.45;0.77;;;17.50;93.70;;;;;;5016969;28;20419;-86
2023/09/21 12:31:22;;;;;;;1.83;0.50;;;17.40;93.80;;;;;;5019672;28;20046;-82
2023/09/21 12:33:50;;;;;;;2.65;0.63;;;17.30;93.90;;;;;;5018309;28;20093;-86
2023/09/21 12:36:16;;;;;;;1.65;0.50;;;17.20;94.10;;;;;;5020671;28;20033;-85
2023/09/21 12:38:42;;;;;;;2.28;0.65;;;17.10;94.10;;;;;;5019000;28;20460;-88
2023/09/21 12:41:10;;;;;;;1.23;0.60;;;17.10;94.20;;;;;;5022361;28;20045;-85
2023/09/21 12:43:38;;;;;;;2.08;0.70;;;17.10;94.30;;;;;;5021948;28;20381;-86
2023/09/21 12:46:08;;;;;;;2.20;0.63;;;17.10;94.40;;;;;;5024063;28;20018;-85
2023/09/21 12:48:36;;;;;;;9.27;1.55;;;17.20;94.50;;;;;;5021948;28;20025;-84
2023/09/21 12:51:03;;;;;;;8.20;1.25;;;17.10;94.50;;;;;;5025783;28;20032;-83
2023/09/21 12:53:29;;;;;;;7.95;1.75;;;17.20;94.80;;;;;;5024229;28;20524;-84